Terminal Aerodrome Forecast
Issued by NWS Goodland, KS

Home | Current Version | Previous Version | Text Only | Print | Product List | Glossary On
Versions: 1 2 3 4 5 6 7 8 9 10 11 12 13 14 15 16 17 18 19
000
FTUS43 KGLD 311506 AAA
TAFGLD
TAF AMD
KGLD 311506Z 3115/0112 11009KT P6SM BKN003 BKN010
     FM311700 15012KT P6SM FEW200
     FM311900 15016G26KT P6SM SCT200
     FM010200 16015G25KT P6SM FEW300=

USA.gov is the U.S. government's official web portal to all federal, state and local government web resources and services.